Time;durP1;ratioP1;P1;durP2;ratioP2;P2;SDS_P1;SDS_P2;PMS_P1;PMS_P2;Temp;Humidity;BMP_temperature;BMP_pressure;BME280_temperature;BME280_humidity;BME280_pressure;Samples;Min_cycle;Max_cycle;Signal;HPM_P1;HPM_P2
2021/08/30 00:00:30;;;;;;;4.10;3.70;;;22.40;70.80;;;;;;5106792;28;20196;-68
2021/08/30 00:03:01;;;;;;;3.60;3.30;;;22.30;70.80;;;;;;5089530;28;20240;-68
2021/08/30 00:05:31;;;;;;;4.23;3.30;;;22.40;70.70;;;;;;5105611;28;20265;-68
2021/08/30 00:08:05;;;;;;;3.93;3.47;;;22.40;70.80;;;;;;5107503;28;20208;-67
2021/08/30 00:10:35;;;;;;;3.60;3.30;;;22.40;70.70;;;;;;5083924;28;20232;-68
2021/08/30 00:13:07;;;;;;;4.10;3.80;;;22.30;70.50;;;;;;5101588;28;20197;-67
2021/08/30 00:15:38;;;;;;;3.50;3.20;;;22.30;70.60;;;;;;5096112;28;20205;-68
2021/08/30 00:18:10;;;;;;;3.53;3.23;;;22.30;70.60;;;;;;5104841;28;20742;-68
2021/08/30 00:20:37;;;;;;;3.87;3.47;;;22.40;70.60;;;;;;5107702;28;20766;-68
2021/08/30 00:23:05;;;;;;;3.57;3.27;;;22.30;70.50;;;;;;5109472;28;20201;-68
2021/08/30 00:25:35;;;;;;;3.97;3.57;;;22.30;70.40;;;;;;5100128;28;20789;-68
2021/08/30 00:28:06;;;;;;;3.73;3.43;;;22.30;70.50;;;;;;5092511;28;20207;-68
2021/08/30 00:30:38;;;;;;;3.70;3.40;;;22.30;70.50;;;;;;5112755;28;20688;-68
2021/08/30 00:33:09;;;;;;;3.60;3.30;;;22.30;70.30;;;;;;5088581;28;20204;-68
2021/08/30 00:35:41;;;;;;;3.87;3.47;;;22.30;70.40;;;;;;5109950;28;20633;-68
2021/08/30 00:38:09;;;;;;;3.80;3.50;;;22.30;70.30;;;;;;5084548;28;20204;-68
2021/08/30 00:40:40;;;;;;;4.03;3.73;;;22.30;70.20;;;;;;5081449;27;20204;-68
2021/08/30 00:43:11;;;;;;;4.00;3.60;;;22.30;70.30;;;;;;5079555;28;20228;-68
2021/08/30 00:45:41;;;;;;;4.33;3.93;;;22.30;70.20;;;;;;5111195;28;20204;-67
2021/08/30 00:48:13;;;;;;;3.80;3.50;;;22.30;70.20;;;;;;5110459;28;20211;-68
2021/08/30 00:50:44;;;;;;;4.23;3.87;;;22.30;70.10;;;;;;5112241;28;20661;-68
2021/08/30 00:53:13;;;;;;;3.87;3.57;;;22.30;70.20;;;;;;5098904;28;20648;-68
2021/08/30 00:55:42;;;;;;;4.20;3.87;;;22.30;70.10;;;;;;5107311;28;20200;-68
2021/08/30 00:58:12;;;;;;;3.87;3.53;;;22.30;70.10;;;;;;5098567;28;20201;-68
2021/08/30 01:00:46;;;;;;;4.33;3.93;;;22.30;70.00;;;;;;5109970;28;20216;-67
2021/08/30 01:03:17;;;;;;;4.43;4.03;;;22.30;69.90;;;;;;5107818;28;20220;-67
2021/08/30 01:05:58;;;;;;;4.10;3.70;;;22.30;70.10;;;;;;5111184;28;20519;-67
2021/08/30 01:08:35;;;;;;;4.20;3.73;;;22.30;70.00;;;;;;5089942;28;20642;-68
2021/08/30 01:11:20;;;;;;;4.53;3.70;;;22.30;69.90;;;;;;5093244;28;20319;-67
2021/08/30 01:14:07;;;;;;;4.23;3.83;;;22.30;70.00;;;;;;5094618;28;20200;-68
2021/08/30 01:16:40;;;;;;;4.43;4.03;;;22.30;69.90;;;;;;5088492;28;20207;-68
2021/08/30 01:19:20;;;;;;;4.13;3.73;;;22.30;70.00;;;;;;5107758;27;20191;-68
2021/08/30 01:21:52;;;;;;;4.00;3.70;;;22.30;69.90;;;;;;5089972;28;20709;-68
2021/08/30 01:24:22;;;;;;;3.90;3.60;;;22.20;69.80;;;;;;5110063;28;20203;-68
2021/08/30 01:26:59;;;;;;;4.97;4.20;;;22.20;69.70;;;;;;5112606;28;20649;-68
2021/08/30 01:29:50;;;;;;;4.10;3.70;;;22.20;69.70;;;;;;5108458;28;20192;-68
2021/08/30 01:32:42;;;;;;;4.07;3.67;;;22.20;69.70;;;;;;5110171;28;20417;-68
2021/08/30 01:35:16;;;;;;;4.30;3.90;;;22.20;69.70;;;;;;5087570;28;20315;-67
2021/08/30 01:37:50;;;;;;;3.80;3.50;;;22.30;69.90;;;;;;5107103;28;20200;-67
2021/08/30 01:40:30;;;;;;;3.87;3.57;;;22.20;69.70;;;;;;5081503;28;20208;-68
2021/08/30 01:43:13;;;;;;;4.00;3.70;;;22.20;69.70;;;;;;5107565;28;20356;-67
2021/08/30 01:45:43;;;;;;;5.03;3.90;;;22.20;69.60;;;;;;5111727;28;20185;-67
2021/08/30 01:48:13;;;;;;;4.47;4.07;;;22.20;69.60;;;;;;5085069;28;20203;-67
2021/08/30 01:50:45;;;;;;;4.17;3.80;;;22.20;69.50;;;;;;5078051;28;20231;-68
2021/08/30 01:53:18;;;;;;;4.20;3.80;;;22.20;69.50;;;;;;5089840;28;20198;-67
2021/08/30 01:55:54;;;;;;;4.13;3.73;;;22.20;69.60;;;;;;5109525;28;20208;-67
2021/08/30 02:01:04;;;;;;;4.50;4.10;;;22.20;69.30;;;;;;5103995;28;20242;-67
2021/08/30 02:03:35;;;;;;;4.43;4.13;;;22.20;69.30;;;;;;5076584;28;20201;-67
2021/08/30 02:06:12;;;;;;;3.77;3.47;;;22.20;69.30;;;;;;5105288;28;20204;-68
2021/08/30 02:08:43;;;;;;;4.50;4.10;;;22.20;69.20;;;;;;5103550;28;20189;-68
2021/08/30 02:11:15;;;;;;;4.60;4.20;;;22.20;69.20;;;;;;5106879;28;20217;-67
2021/08/30 02:13:46;;;;;;;4.20;3.80;;;22.20;69.10;;;;;;5098578;28;20240;-68
2021/08/30 02:16:15;;;;;;;4.90;4.40;;;22.20;69.10;;;;;;5087901;28;20189;-68
2021/08/30 02:19:32;;;;;;;4.10;3.70;;;22.20;69.20;;;;;;5094629;28;20276;-68
2021/08/30 02:22:05;;;;;;;4.20;3.83;;;22.20;69.10;;;;;;5096174;28;20189;-68
2021/08/30 02:24:48;;;;;;;4.77;4.37;;;22.20;69.00;;;;;;5072017;28;20231;-68
2021/08/30 02:27:53;;;;;;;4.60;4.20;;;22.20;68.90;;;;;;5092953;28;20236;-68
2021/08/30 02:30:31;;;;;;;4.70;4.20;;;22.20;69.00;;;;;;5102621;28;20688;-67
2021/08/30 02:33:23;;;;;;;4.20;3.77;;;22.20;68.90;;;;;;5105266;28;20317;-67
2021/08/30 02:36:03;;;;;;;4.77;4.37;;;22.20;68.90;;;;;;5089732;28;20559;-67
2021/08/30 02:38:35;;;;;;;4.20;3.80;;;22.20;68.80;;;;;;5108943;28;20196;-67
2021/08/30 02:41:07;;;;;;;4.87;4.37;;;22.20;68.80;;;;;;5091231;28;20649;-68
2021/08/30 02:43:39;;;;;;;4.57;4.17;;;22.20;68.70;;;;;;5102939;28;20669;-67
2021/08/30 02:46:18;;;;;;;4.43;3.97;;;22.20;68.70;;;;;;5110598;28;20204;-67
2021/08/30 02:48:55;;;;;;;4.67;4.27;;;22.20;68.70;;;;;;5104118;28;20193;-68
2021/08/30 02:51:26;;;;;;;4.97;4.43;;;22.20;68.70;;;;;;5093471;28;20218;-67
2021/08/30 02:53:57;;;;;;;5.27;4.77;;;22.10;68.30;;;;;;5103214;28;20208;-68
2021/08/30 02:56:28;;;;;;;5.03;4.17;;;22.10;68.40;;;;;;5059370;28;20198;-67
2021/08/30 02:58:58;;;;;;;4.93;4.17;;;22.10;68.40;;;;;;5105122;28;20626;-67
2021/08/30 03:01:30;;;;;;;5.90;4.30;;;22.10;68.20;;;;;;5092434;28;20253;-68
2021/08/30 03:04:09;;;;;;;4.30;4.00;;;22.20;68.40;;;;;;5088595;28;20201;-67
2021/08/30 03:06:39;;;;;;;5.13;4.40;;;22.10;68.20;;;;;;5100977;28;20204;-67
2021/08/30 03:09:09;;;;;;;4.37;3.97;;;22.20;68.20;;;;;;5057263;28;20729;-68
2021/08/30 03:11:39;;;;;;;4.40;4.00;;;22.20;68.30;;;;;;5101298;28;20231;-68
2021/08/30 03:14:12;;;;;;;4.50;4.10;;;22.10;68.20;;;;;;5079442;28;20634;-67
2021/08/30 03:16:42;;;;;;;4.83;4.23;;;22.10;68.20;;;;;;5089334;28;20200;-67
2021/08/30 03:19:14;;;;;;;4.47;4.07;;;22.10;68.00;;;;;;5070748;28;20254;-68
2021/08/30 03:21:46;;;;;;;4.73;4.33;;;22.10;67.90;;;;;;5084916;28;20226;-68
2021/08/30 03:24:20;;;;;;;4.80;4.40;;;22.10;68.00;;;;;;5102018;28;20206;-68
2021/08/30 03:26:53;;;;;;;4.40;4.00;;;22.10;67.80;;;;;;5105504;28;20202;-68
2021/08/30 03:29:28;;;;;;;4.37;3.97;;;22.10;67.90;;;;;;5092863;28;20199;-68
2021/08/30 03:31:58;;;;;;;4.10;3.70;;;22.10;67.80;;;;;;5088346;28;20212;-67
2021/08/30 03:34:32;;;;;;;5.47;3.87;;;22.10;67.90;;;;;;5091664;28;20228;-67
2021/08/30 03:37:04;;;;;;;5.50;4.20;;;22.10;67.80;;;;;;5090088;28;20215;-67
2021/08/30 03:39:35;;;;;;;4.50;4.10;;;22.10;68.00;;;;;;5074234;28;20200;-67
2021/08/30 03:42:07;;;;;;;5.03;3.80;;;22.10;67.80;;;;;;5106802;28;20198;-67
2021/08/30 03:44:39;;;;;;;4.60;4.20;;;22.10;68.00;;;;;;5089703;28;20602;-67
2021/08/30 03:47:08;;;;;;;4.40;3.97;;;22.10;67.70;;;;;;5077717;28;20211;-68
2021/08/30 03:49:39;;;;;;;4.37;3.97;;;22.10;67.70;;;;;;5104341;28;20196;-68
2021/08/30 03:52:10;;;;;;;4.47;4.07;;;22.10;67.70;;;;;;5109580;28;20216;-68
2021/08/30 03:54:40;;;;;;;4.23;3.90;;;22.10;67.90;;;;;;5105356;28;20192;-68
2021/08/30 03:57:14;;;;;;;4.10;3.70;;;22.10;67.70;;;;;;5106833;28;20196;-67
2021/08/30 04:00:00;;;;;;;5.20;3.77;;;22.10;67.90;;;;;;5101531;28;20292;-67
2021/08/30 04:02:33;;;;;;;4.27;3.87;;;22.10;67.80;;;;;;5100597;28;20192;-67
2021/08/30 04:05:05;;;;;;;4.63;3.70;;;22.10;67.70;;;;;;5108185;28;20208;-67
2021/08/30 04:07:42;;;;;;;4.53;4.13;;;22.10;67.70;;;;;;5087061;28;20296;-68
2021/08/30 04:10:14;;;;;;;4.60;4.03;;;22.10;67.60;;;;;;5101653;28;20649;-68
2021/08/30 04:12:44;;;;;;;4.17;3.77;;;22.10;67.40;;;;;;5110654;28;20185;-68
2021/08/30 04:15:16;;;;;;;4.13;3.73;;;22.10;67.50;;;;;;5103278;28;20189;-68
2021/08/30 04:18:00;;;;;;;4.83;4.33;;;22.10;67.50;;;;;;5109803;28;20219;-68
2021/08/30 04:20:33;;;;;;;4.50;4.10;;;22.10;67.50;;;;;;5078397;28;20737;-68
2021/08/30 04:23:03;;;;;;;4.73;4.27;;;22.10;67.30;;;;;;5108400;28;20511;-67
2021/08/30 04:25:35;;;;;;;5.00;4.03;;;22.10;67.30;;;;;;5106927;28;20258;-68
2021/08/30 04:28:07;;;;;;;4.97;4.10;;;22.10;67.20;;;;;;5109469;28;20200;-68
2021/08/30 04:30:39;;;;;;;4.27;3.97;;;22.10;67.30;;;;;;5092706;28;20811;-68
2021/08/30 04:33:16;;;;;;;4.40;4.00;;;22.10;67.20;;;;;;5106594;28;20728;-68
2021/08/30 04:35:51;;;;;;;3.70;3.40;;;22.10;67.20;;;;;;5112456;28;20226;-67
2021/08/30 04:38:29;;;;;;;4.20;3.90;;;22.10;67.10;;;;;;5112437;28;20196;-69
2021/08/30 04:41:00;;;;;;;4.23;3.83;;;22.10;67.20;;;;;;5097732;28;20196;-65
2021/08/30 04:43:30;;;;;;;4.30;3.90;;;22.00;67.00;;;;;;5091756;28;20193;-65
2021/08/30 04:46:14;;;;;;;4.40;4.00;;;22.10;67.20;;;;;;5110859;28;20290;-65
2021/08/30 04:48:46;;;;;;;4.87;4.47;;;22.00;67.00;;;;;;5080597;28;20213;-64
2021/08/30 04:51:16;;;;;;;9.60;3.67;;;22.00;67.20;;;;;;5082191;28;20200;-68
2021/08/30 04:53:45;;;;;;;5.30;3.93;;;22.00;67.40;;;;;;5103510;27;20350;-68
2021/08/30 04:56:14;;;;;;;6.93;4.20;;;22.00;67.40;;;;;;5091074;28;20755;-66
2021/08/30 04:58:46;;;;;;;7.70;5.00;;;22.10;67.40;;;;;;5091006;28;20201;-67
2021/08/30 05:01:17;;;;;;;16.00;6.13;;;22.00;67.30;;;;;;5116763;27;20196;-65
2021/08/30 05:03:48;;;;;;;17.13;5.90;;;22.10;67.30;;;;;;5109350;28;20563;-64
2021/08/30 05:06:17;;;;;;;13.53;6.17;;;22.10;67.30;;;;;;5115419;28;20317;-68
2021/08/30 05:08:47;;;;;;;18.30;6.40;;;22.00;67.20;;;;;;5110245;28;20219;-69
2021/08/30 05:11:19;;;;;;;11.43;6.40;;;22.10;67.10;;;;;;5107284;28;20219;-66
2021/08/30 05:13:49;;;;;;;15.07;6.23;;;22.10;67.00;;;;;;5110126;28;20208;-66
2021/08/30 05:16:19;;;;;;;15.77;6.97;;;22.10;67.00;;;;;;5104566;28;20185;-67
2021/08/30 05:18:50;;;;;;;11.80;6.10;;;22.10;67.00;;;;;;5108137;28;20193;-67
2021/08/30 05:21:20;;;;;;;16.43;6.60;;;22.00;66.90;;;;;;5099372;28;20223;-65
2021/08/30 05:23:49;;;;;;;14.27;5.90;;;22.10;67.00;;;;;;5097273;28;20197;-65
2021/08/30 05:26:19;;;;;;;10.83;6.37;;;22.10;67.00;;;;;;5108611;28;20204;-67
2021/08/30 05:28:50;;;;;;;11.27;5.90;;;22.10;66.90;;;;;;5107001;28;20200;-67
2021/08/30 05:31:21;;;;;;;12.07;6.30;;;22.10;67.00;;;;;;5109226;28;20262;-67
2021/08/30 05:33:50;;;;;;;10.50;5.97;;;22.00;66.90;;;;;;5105044;28;20552;-67
2021/08/30 05:36:19;;;;;;;12.80;6.27;;;22.00;66.90;;;;;;5081457;28;20225;-70
2021/08/30 05:38:51;;;;;;;11.73;6.10;;;22.00;66.80;;;;;;5089665;28;20197;-69
2021/08/30 05:41:24;;;;;;;7.83;5.53;;;22.10;66.90;;;;;;5087619;28;20529;-68
2021/08/30 05:44:01;;;;;;;14.80;6.20;;;22.10;66.90;;;;;;5072570;28;20201;-68
2021/08/30 05:46:31;;;;;;;12.23;6.30;;;22.10;66.80;;;;;;5088006;28;20193;-64
2021/08/30 05:49:01;;;;;;;9.80;6.03;;;22.10;66.80;;;;;;5088609;28;20203;-64
2021/08/30 05:51:33;;;;;;;11.00;6.10;;;22.00;66.80;;;;;;5068503;28;20237;-66
2021/08/30 05:54:02;;;;;;;9.60;5.80;;;22.10;66.80;;;;;;5084001;28;20193;-66
2021/08/30 05:56:32;;;;;;;9.77;5.93;;;22.00;66.70;;;;;;5072558;28;20578;-69
2021/08/30 05:59:00;;;;;;;10.33;5.87;;;22.00;66.70;;;;;;5061368;28;20197;-70
2021/08/30 06:01:30;;;;;;;8.80;5.87;;;22.10;66.70;;;;;;5079784;28;20211;-66
2021/08/30 06:04:05;;;;;;;9.80;6.17;;;22.10;66.70;;;;;;5087908;28;20201;-66
2021/08/30 06:06:35;;;;;;;9.27;5.70;;;22.00;66.80;;;;;;5067409;28;20198;-67
2021/08/30 06:09:10;;;;;;;7.40;5.40;;;22.00;66.80;;;;;;5075869;28;20197;-68
2021/08/30 06:11:41;;;;;;;7.43;5.27;;;22.00;66.70;;;;;;5080482;28;20221;-66
2021/08/30 06:14:11;;;;;;;6.73;5.17;;;22.00;66.70;;;;;;5042974;28;20204;-66
2021/08/30 06:16:41;;;;;;;7.13;5.57;;;22.00;66.70;;;;;;5079080;28;20538;-66
2021/08/30 06:19:10;;;;;;;9.00;5.57;;;22.00;66.70;;;;;;5083646;28;20197;-66
2021/08/30 06:21:41;;;;;;;7.50;5.57;;;22.00;66.70;;;;;;5059423;28;20635;-67
2021/08/30 06:24:11;;;;;;;8.97;5.83;;;22.00;66.70;;;;;;5084539;28;20205;-66
2021/08/30 06:26:42;;;;;;;6.73;5.03;;;22.00;66.70;;;;;;5084732;28;20194;-67
2021/08/30 06:29:18;;;;;;;7.93;5.03;;;22.10;66.70;;;;;;5083173;28;20702;-66
2021/08/30 06:31:49;;;;;;;5.97;4.90;;;22.00;66.60;;;;;;5053234;28;20208;-66
2021/08/30 06:34:21;;;;;;;8.67;5.83;;;22.00;66.60;;;;;;5086451;28;20211;-66
2021/08/30 06:36:52;;;;;;;8.53;5.37;;;22.00;66.60;;;;;;5108523;28;20212;-66
2021/08/30 06:39:23;;;;;;;8.37;5.53;;;22.10;66.70;;;;;;5107057;28;20249;-66
2021/08/30 06:41:53;;;;;;;7.80;5.50;;;22.00;66.70;;;;;;5090108;28;20241;-67
2021/08/30 06:44:25;;;;;;;7.00;5.33;;;22.10;67.00;;;;;;5102879;28;20198;-67
2021/08/30 06:46:53;;;;;;;6.43;5.27;;;22.10;66.90;;;;;;5095224;28;20216;-66
2021/08/30 06:49:23;;;;;;;9.30;6.27;;;22.10;67.00;;;;;;5103573;28;20213;-66
2021/08/30 06:51:53;;;;;;;6.20;5.50;;;22.00;67.00;;;;;;5101729;28;20228;-64
2021/08/30 06:54:25;;;;;;;7.00;5.83;;;22.10;67.00;;;;;;5102124;28;20408;-64
2021/08/30 06:56:56;;;;;;;8.57;5.83;;;22.10;67.00;;;;;;5105205;28;20622;-65
2021/08/30 06:59:26;;;;;;;9.17;6.10;;;22.10;66.90;;;;;;5101782;28;20245;-65
2021/08/30 07:01:57;;;;;;;7.50;4.90;;;22.10;66.90;;;;;;5106884;28;20704;-67
2021/08/30 07:04:27;;;;;;;6.93;5.43;;;22.10;67.50;;;;;;5109079;28;20193;-67
2021/08/30 07:06:57;;;;;;;6.90;5.90;;;22.10;66.80;;;;;;5106969;28;20212;-68
2021/08/30 07:09:29;;;;;;;7.73;5.83;;;22.10;66.70;;;;;;5094620;28;20196;-68
2021/08/30 07:12:02;;;;;;;7.70;6.10;;;22.10;66.70;;;;;;5128999;28;20233;-68
2021/08/30 07:14:32;;;;;;;6.37;5.77;;;22.10;66.70;;;;;;5135362;28;20192;-68
2021/08/30 07:17:04;;;;;;;7.17;5.57;;;22.10;66.70;;;;;;5110817;28;20176;-68
2021/08/30 07:19:36;;;;;;;7.07;6.37;;;22.10;66.70;;;;;;5132098;28;20205;-68
2021/08/30 07:22:51;;;;;;;6.93;6.13;;;22.10;66.70;;;;;;5130360;28;20192;-68
2021/08/30 07:25:21;;;;;;;6.97;6.27;;;22.10;66.70;;;;;;5121110;28;20187;-66
2021/08/30 07:27:52;;;;;;;8.17;6.40;;;22.10;66.70;;;;;;5085725;28;20208;-66
2021/08/30 07:30:27;;;;;;;9.60;6.00;;;22.10;66.70;;;;;;5091826;28;20196;-66
2021/08/30 07:32:57;;;;;;;7.03;6.27;;;22.10;66.70;;;;;;5103300;27;20216;-66
2021/08/30 07:35:29;;;;;;;7.27;6.53;;;22.10;66.70;;;;;;5109510;27;20220;-66
2021/08/30 07:38:01;;;;;;;7.80;6.27;;;22.10;66.60;;;;;;5115399;28;20249;-65
2021/08/30 07:40:38;;;;;;;6.93;6.20;;;22.10;66.60;;;;;;5113100;27;20188;-64
2021/08/30 07:43:06;;;;;;;8.57;6.87;;;22.10;66.60;;;;;;5098307;27;20234;-64
2021/08/30 07:45:36;;;;;;;7.73;6.93;;;22.10;66.70;;;;;;5113496;28;20215;-68
2021/08/30 07:48:07;;;;;;;7.27;6.57;;;22.10;66.70;;;;;;5082104;28;20692;-68
2021/08/30 07:50:36;;;;;;;8.17;6.70;;;22.10;66.70;;;;;;5103646;27;20209;-67
2021/08/30 07:53:09;;;;;;;8.47;6.40;;;22.10;66.80;;;;;;5099378;28;20216;-66
2021/08/30 07:55:40;;;;;;;7.47;6.20;;;22.20;66.80;;;;;;5094317;28;20601;-64
2021/08/30 07:58:15;;;;;;;7.00;6.23;;;22.20;66.80;;;;;;5111505;28;20196;-64
2021/08/30 08:00:46;;;;;;;6.77;6.03;;;22.20;66.80;;;;;;5104874;28;20488;-67
2021/08/30 08:03:14;;;;;;;6.50;5.83;;;22.10;66.70;;;;;;5095606;28;20249;-66
2021/08/30 08:05:46;;;;;;;6.47;5.87;;;22.20;66.70;;;;;;5088219;28;20189;-68
2021/08/30 08:08:17;;;;;;;7.43;6.63;;;22.20;66.70;;;;;;5111112;28;20255;-68
2021/08/30 08:10:44;;;;;;;6.60;5.90;;;22.20;66.70;;;;;;5091134;28;20598;-66
2021/08/30 08:13:15;;;;;;;8.53;6.60;;;22.20;66.70;;;;;;5114339;28;20271;-66
2021/08/30 08:15:49;;;;;;;8.70;7.20;;;22.20;66.80;;;;;;5096509;28;20253;-66
2021/08/30 08:18:18;;;;;;;7.47;6.80;;;22.20;66.80;;;;;;5108188;28;20196;-66
2021/08/30 08:20:48;;;;;;;7.40;6.70;;;22.20;66.90;;;;;;5116908;28;20607;-68
2021/08/30 08:23:18;;;;;;;7.20;6.47;;;22.20;66.70;;;;;;5114936;27;20636;-69
2021/08/30 08:25:48;;;;;;;7.33;6.60;;;22.20;66.70;;;;;;5107685;28;20283;-65
2021/08/30 08:28:20;;;;;;;8.27;7.07;;;22.20;66.80;;;;;;5107605;28;20204;-66
2021/08/30 08:30:50;;;;;;;6.97;6.27;;;22.20;66.70;;;;;;5074938;28;20583;-68
2021/08/30 08:33:21;;;;;;;9.57;6.87;;;22.20;66.80;;;;;;5111931;27;20708;-69
2021/08/30 08:35:52;;;;;;;7.93;6.87;;;22.20;66.90;;;;;;5103789;28;20320;-69
2021/08/30 08:38:23;;;;;;;7.20;6.43;;;22.20;66.80;;;;;;5112854;27;20193;-69
2021/08/30 08:41:06;;;;;;;8.27;6.90;;;22.30;66.90;;;;;;5109230;28;20288;-66
2021/08/30 08:43:37;;;;;;;7.67;6.17;;;22.30;67.00;;;;;;5108044;28;20201;-66
2021/08/30 08:46:07;;;;;;;10.27;7.50;;;22.30;67.10;;;;;;5106631;28;20231;-66
2021/08/30 08:48:35;;;;;;;8.27;7.03;;;22.30;67.40;;;;;;5107016;28;20196;-66
2021/08/30 08:51:11;;;;;;;7.93;7.13;;;22.30;67.20;;;;;;5112865;28;20673;-67
2021/08/30 08:53:44;;;;;;;10.13;8.20;;;22.30;67.30;;;;;;5086142;28;20571;-67
2021/08/30 08:56:25;;;;;;;9.37;7.57;;;22.20;67.20;;;;;;5102312;28;20250;-69
2021/08/30 08:58:58;;;;;;;10.80;7.90;;;22.30;67.10;;;;;;5110670;28;20791;-69
2021/08/30 09:01:30;;;;;;;9.07;8.17;;;22.30;67.10;;;;;;5087587;28;20634;-67
2021/08/30 09:04:06;;;;;;;8.73;7.93;;;22.30;67.10;;;;;;5091637;28;20207;-67
2021/08/30 09:06:41;;;;;;;9.23;7.90;;;22.30;67.10;;;;;;5090348;28;20231;-69
2021/08/30 09:09:18;;;;;;;8.93;8.03;;;22.30;67.10;;;;;;5111723;28;20188;-69
2021/08/30 09:11:57;;;;;;;8.80;7.70;;;22.30;67.10;;;;;;5107411;28;20224;-66
2021/08/30 09:14:29;;;;;;;8.10;7.27;;;22.30;67.20;;;;;;5112394;28;20184;-67
2021/08/30 09:17:10;;;;;;;8.87;7.60;;;22.30;67.10;;;;;;5091088;28;20275;-67
2021/08/30 09:19:40;;;;;;;9.23;7.50;;;22.30;67.20;;;;;;5066504;28;20201;-68
2021/08/30 09:22:09;;;;;;;8.17;7.37;;;22.30;67.10;;;;;;5088927;28;20219;-70
2021/08/30 09:24:40;;;;;;;8.20;7.40;;;22.30;67.20;;;;;;5076674;28;20585;-70
2021/08/30 09:27:11;;;;;;;8.37;7.50;;;22.30;67.10;;;;;;5092254;28;20203;-68
2021/08/30 09:29:42;;;;;;;7.90;7.10;;;22.30;67.20;;;;;;5093749;28;20239;-68
2021/08/30 09:32:21;;;;;;;8.13;7.33;;;22.30;67.30;;;;;;5083290;28;20542;-68
2021/08/30 09:34:52;;;;;;;9.13;7.33;;;22.30;67.30;;;;;;5097687;28;20680;-68
2021/08/30 09:37:24;;;;;;;8.13;7.27;;;22.30;67.30;;;;;;5088280;28;20212;-67
2021/08/30 09:39:58;;;;;;;8.07;7.27;;;22.30;67.40;;;;;;5078784;28;20192;-67
2021/08/30 09:42:28;;;;;;;9.43;8.20;;;22.30;67.40;;;;;;5106441;28;20746;-68
2021/08/30 09:45:29;;;;;;;10.20;7.70;;;22.30;67.60;;;;;;5059712;28;20200;-68
2021/08/30 09:48:04;;;;;;;8.83;7.90;;;22.30;67.40;;;;;;5099818;28;20228;-68
2021/08/30 09:50:40;;;;;;;8.30;7.50;;;22.40;67.40;;;;;;5060764;28;20209;-68
2021/08/30 09:53:13;;;;;;;8.37;7.00;;;22.30;67.50;;;;;;5074057;28;20216;-68
2021/08/30 09:55:41;;;;;;;9.53;7.37;;;22.30;67.60;;;;;;5087257;28;20273;-67
2021/08/30 09:58:30;;;;;;;7.67;6.87;;;22.40;67.40;;;;;;5093489;28;20204;-68
2021/08/30 10:01:03;;;;;;;8.57;7.77;;;22.40;67.60;;;;;;5106119;28;20257;-69
2021/08/30 10:03:40;;;;;;;8.83;7.63;;;22.40;67.70;;;;;;5073986;28;20237;-70
2021/08/30 10:06:09;;;;;;;7.53;6.63;;;22.40;67.40;;;;;;5099549;28;20200;-70
2021/08/30 10:08:41;;;;;;;7.87;6.93;;;22.40;67.40;;;;;;5106737;28;20215;-70
2021/08/30 10:11:11;;;;;;;8.67;7.27;;;22.40;67.20;;;;;;5105649;28;20206;-69
2021/08/30 10:13:47;;;;;;;8.43;7.63;;;22.40;67.30;;;;;;5108755;28;20665;-69
2021/08/30 10:16:19;;;;;;;10.20;7.37;;;22.40;67.50;;;;;;5098716;28;20200;-70
2021/08/30 10:18:53;;;;;;;9.30;7.67;;;22.40;67.40;;;;;;5087760;28;20239;-70
2021/08/30 10:21:44;;;;;;;7.13;6.43;;;22.40;67.40;;;;;;5099862;28;20254;-69
2021/08/30 10:24:21;;;;;;;7.13;6.43;;;22.40;67.50;;;;;;5083216;28;20196;-70
2021/08/30 10:27:03;;;;;;;7.27;6.50;;;22.40;67.40;;;;;;5107997;28;20192;-70
2021/08/30 10:29:34;;;;;;;7.40;6.70;;;22.40;67.10;;;;;;5102816;28;20204;-69
2021/08/30 10:32:04;;;;;;;8.07;7.27;;;22.40;67.30;;;;;;5080910;28;20538;-70
2021/08/30 10:34:39;;;;;;;8.00;7.20;;;22.50;67.30;;;;;;5103873;27;20701;-70
2021/08/30 10:37:18;;;;;;;7.00;6.40;;;22.40;67.20;;;;;;5092127;28;20227;-69
2021/08/30 10:39:56;;;;;;;7.77;6.90;;;22.40;67.50;;;;;;5088324;28;20199;-70
2021/08/30 10:42:26;;;;;;;9.67;7.17;;;22.50;67.30;;;;;;5090291;28;20232;-71
2021/08/30 10:45:06;;;;;;;8.53;7.73;;;22.50;67.20;;;;;;5103540;28;20208;-71
2021/08/30 10:47:41;;;;;;;7.90;7.20;;;22.50;67.20;;;;;;5083679;28;20204;-71
2021/08/30 10:50:20;;;;;;;8.87;8.07;;;22.50;67.00;;;;;;5105849;28;20200;-71
2021/08/30 10:53:04;;;;;;;7.83;6.80;;;22.50;67.50;;;;;;5079769;28;20228;-71
2021/08/30 10:55:38;;;;;;;8.43;7.63;;;22.50;67.10;;;;;;5076625;28;20210;-71
2021/08/30 10:58:22;;;;;;;7.87;7.17;;;22.50;67.30;;;;;;5075133;28;20207;-70
2021/08/30 11:01:09;;;;;;;7.73;6.97;;;22.50;67.20;;;;;;5080848;28;20204;-71
2021/08/30 11:03:40;;;;;;;7.97;7.17;;;22.60;67.20;;;;;;5105634;28;20200;-70
2021/08/30 11:06:15;;;;;;;7.93;7.20;;;22.50;67.10;;;;;;5112144;28;20587;-70
2021/08/30 11:08:50;;;;;;;9.13;7.20;;;22.60;67.20;;;;;;5111572;28;20230;-69
2021/08/30 11:11:29;;;;;;;7.10;6.50;;;22.60;67.10;;;;;;5090450;28;20201;-69
2021/08/30 11:14:20;;;;;;;7.77;6.97;;;22.50;67.10;;;;;;5100766;28;20213;-70
2021/08/30 11:16:55;;;;;;;8.40;6.93;;;22.60;67.30;;;;;;5090174;28;20610;-71
2021/08/30 11:19:25;;;;;;;8.97;8.00;;;22.60;67.20;;;;;;5066208;28;20223;-71
2021/08/30 11:22:07;;;;;;;7.97;7.17;;;22.60;67.40;;;;;;5107330;28;20197;-71
2021/08/30 11:25:02;;;;;;;7.60;6.90;;;22.60;67.30;;;;;;5091079;28;20652;-71
2021/08/30 11:27:35;;;;;;;8.27;7.50;;;22.60;67.30;;;;;;5106853;28;20537;-71
2021/08/30 11:30:13;;;;;;;7.93;7.23;;;22.60;67.40;;;;;;5108758;28;20208;-71
2021/08/30 11:32:51;;;;;;;7.43;6.70;;;22.60;67.40;;;;;;5086995;28;20224;-71
2021/08/30 11:35:23;;;;;;;8.87;7.00;;;22.60;68.00;;;;;;5084439;28;20253;-71
2021/08/30 11:37:56;;;;;;;7.67;6.97;;;22.60;67.40;;;;;;5085187;28;20642;-71
2021/08/30 11:40:33;;;;;;;6.63;6.03;;;22.70;67.60;;;;;;5089032;28;20196;-71
2021/08/30 11:43:17;;;;;;;8.73;7.20;;;22.70;67.50;;;;;;5088575;28;20614;-71
2021/08/30 11:46:06;;;;;;;7.80;6.90;;;22.70;67.70;;;;;;5090694;28;20872;-71
2021/08/30 11:48:37;;;;;;;7.50;6.80;;;22.70;67.30;;;;;;5107859;28;20709;-71
2021/08/30 11:51:09;;;;;;;7.50;6.80;;;22.70;67.30;;;;;;5101000;28;20715;-71
2021/08/30 11:53:40;;;;;;;7.87;7.17;;;22.70;67.30;;;;;;5091880;28;20212;-71
2021/08/30 11:56:17;;;;;;;7.10;6.40;;;22.70;67.90;;;;;;5089259;28;20204;-71
2021/08/30 11:58:49;;;;;;;7.13;6.43;;;22.70;67.20;;;;;;5107544;28;20200;-71
2021/08/30 12:01:19;;;;;;;7.33;6.63;;;22.70;67.10;;;;;;5097122;28;20703;-71
2021/08/30 12:03:54;;;;;;;7.20;6.50;;;22.70;67.20;;;;;;5080657;28;20197;-71
2021/08/30 12:06:25;;;;;;;7.23;6.63;;;22.70;67.20;;;;;;5094205;28;20223;-71
2021/08/30 12:08:58;;;;;;;7.30;6.70;;;22.70;67.10;;;;;;5106303;28;20216;-71
2021/08/30 12:11:27;;;;;;;7.30;6.70;;;22.70;67.30;;;;;;5106286;28;20219;-71
2021/08/30 12:14:10;;;;;;;7.40;6.63;;;22.80;67.20;;;;;;5109291;28;20705;-71
2021/08/30 12:16:45;;;;;;;7.13;6.43;;;22.80;67.40;;;;;;5109089;28;20207;-71
2021/08/30 12:19:18;;;;;;;7.57;6.77;;;22.80;67.50;;;;;;5091146;28;20567;-70
2021/08/30 12:21:50;;;;;;;7.77;6.60;;;22.80;67.10;;;;;;5109706;27;20199;-70
2021/08/30 12:24:22;;;;;;;6.73;6.10;;;22.80;67.00;;;;;;5113233;27;20574;-70
2021/08/30 12:26:55;;;;;;;6.80;6.30;;;22.80;67.10;;;;;;5106073;27;20209;-70
2021/08/30 12:29:35;;;;;;;7.60;6.87;;;22.80;67.10;;;;;;5111581;27;20230;-71
2021/08/30 12:32:06;;;;;;;6.87;6.23;;;22.80;67.10;;;;;;5101530;27;20526;-70
2021/08/30 12:34:41;;;;;;;6.77;6.17;;;22.80;66.90;;;;;;5084987;27;20245;-70
2021/08/30 12:37:13;;;;;;;7.67;6.97;;;22.80;67.00;;;;;;5070200;28;20537;-72
2021/08/30 12:39:40;;;;;;;7.67;6.77;;;22.80;67.10;;;;;;5089760;28;20205;-72
2021/08/30 12:42:09;;;;;;;7.27;6.57;;;22.80;66.90;;;;;;5093437;28;20197;-72
2021/08/30 12:44:38;;;;;;;7.27;6.57;;;22.80;67.00;;;;;;5089369;28;20579;-72
2021/08/30 12:47:08;;;;;;;7.03;6.43;;;22.80;66.90;;;;;;5091205;28;20185;-72
2021/08/30 12:49:39;;;;;;;6.73;6.23;;;22.80;66.90;;;;;;5090578;28;20243;-72
2021/08/30 12:52:10;;;;;;;6.63;6.03;;;22.80;66.90;;;;;;5087586;28;20247;-71
2021/08/30 12:54:37;;;;;;;6.63;6.03;;;22.90;66.60;;;;;;5093581;28;20209;-72
2021/08/30 12:57:06;;;;;;;7.27;6.53;;;22.90;66.70;;;;;;5074113;28;20197;-72
2021/08/30 12:59:33;;;;;;;7.63;6.93;;;22.90;66.50;;;;;;5091953;28;20284;-72
2021/08/30 13:02:04;;;;;;;7.00;6.40;;;22.90;66.60;;;;;;5063297;28;20201;-72
2021/08/30 13:04:35;;;;;;;6.23;5.63;;;22.90;66.90;;;;;;5083235;28;20220;-72
2021/08/30 13:07:05;;;;;;;6.73;6.07;;;22.90;66.70;;;;;;5092311;28;20606;-72
2021/08/30 13:09:34;;;;;;;6.87;6.30;;;22.90;66.60;;;;;;5086403;28;20530;-72
2021/08/30 13:12:03;;;;;;;7.37;6.77;;;22.90;66.70;;;;;;5062649;28;20587;-72
2021/08/30 13:14:33;;;;;;;7.17;6.57;;;22.90;66.80;;;;;;5087138;28;20962;-72
2021/08/30 13:17:05;;;;;;;7.40;6.70;;;22.90;66.40;;;;;;5085653;28;20192;-72
2021/08/30 13:19:37;;;;;;;8.40;6.73;;;22.90;66.30;;;;;;5090912;28;20601;-72